sensor_id;sensor_type;location;lat;lon;timestamp;P1;durP1;ratioP1;P2;durP2;ratioP2
76107;SDS011;64834;52.516;10.528;2023-06-10T00:01:47;5.93;;;2.97;;
76107;SDS011;64834;52.516;10.528;2023-06-10T00:04:15;7.20;;;3.20;;
76107;SDS011;64834;52.516;10.528;2023-06-10T00:06:42;5.13;;;3.40;;
76107;SDS011;64834;52.516;10.528;2023-06-10T00:09:08;7.75;;;4.03;;
76107;SDS011;64834;52.516;10.528;2023-06-10T00:11:35;7.90;;;3.25;;
76107;SDS011;64834;52.516;10.528;2023-06-10T00:14:01;5.07;;;3.40;;
76107;SDS011;64834;52.516;10.528;2023-06-10T00:16:26;6.05;;;3.05;;
76107;SDS011;64834;52.516;10.528;2023-06-10T00:18:52;6.28;;;3.22;;
76107;SDS011;64834;52.516;10.528;2023-06-10T00:21:17;7.22;;;3.55;;
76107;SDS011;64834;52.516;10.528;2023-06-10T00:23:44;8.73;;;3.25;;
76107;SDS011;64834;52.516;10.528;2023-06-10T00:26:09;6.45;;;3.55;;
76107;SDS011;64834;52.516;10.528;2023-06-10T00:28:35;10.55;;;3.83;;
76107;SDS011;64834;52.516;10.528;2023-06-10T00:31:00;8.27;;;3.53;;
76107;SDS011;64834;52.516;10.528;2023-06-10T00:33:26;11.00;;;3.47;;
76107;SDS011;64834;52.516;10.528;2023-06-10T00:35:51;8.60;;;3.40;;
76107;SDS011;64834;52.516;10.528;2023-06-10T00:38:17;5.60;;;3.88;;
76107;SDS011;64834;52.516;10.528;2023-06-10T00:40:42;8.05;;;3.58;;
76107;SDS011;64834;52.516;10.528;2023-06-10T00:43:07;8.45;;;3.90;;
76107;SDS011;64834;52.516;10.528;2023-06-10T00:45:33;7.90;;;3.63;;
76107;SDS011;64834;52.516;10.528;2023-06-10T00:48:01;5.95;;;3.90;;
76107;SDS011;64834;52.516;10.528;2023-06-10T00:50:27;8.55;;;4.10;;
76107;SDS011;64834;52.516;10.528;2023-06-10T00:52:55;8.10;;;4.32;;
76107;SDS011;64834;52.516;10.528;2023-06-10T00:55:21;6.80;;;3.63;;
76107;SDS011;64834;52.516;10.528;2023-06-10T00:57:46;9.88;;;3.80;;
76107;SDS011;64834;52.516;10.528;2023-06-10T01:00:16;5.40;;;3.47;;
76107;SDS011;64834;52.516;10.528;2023-06-10T01:02:42;6.45;;;3.85;;
76107;SDS011;64834;52.516;10.528;2023-06-10T01:05:07;7.15;;;3.83;;
76107;SDS011;64834;52.516;10.528;2023-06-10T01:07:37;7.90;;;4.03;;
76107;SDS011;64834;52.516;10.528;2023-06-10T01:15:36;10.52;;;3.72;;
76107;SDS011;64834;52.516;10.528;2023-06-10T01:18:08;7.38;;;4.07;;
76107;SDS011;64834;52.516;10.528;2023-06-10T01:20:36;8.23;;;4.40;;
76107;SDS011;64834;52.516;10.528;2023-06-10T01:23:05;8.23;;;4.03;;
76107;SDS011;64834;52.516;10.528;2023-06-10T01:25:31;6.90;;;3.70;;
76107;SDS011;64834;52.516;10.528;2023-06-10T01:28:14;12.00;;;4.18;;
76107;SDS011;64834;52.516;10.528;2023-06-10T01:33:43;8.10;;;4.03;;
76107;SDS011;64834;52.516;10.528;2023-06-10T01:36:12;10.23;;;4.10;;
76107;SDS011;64834;52.516;10.528;2023-06-10T01:38:44;6.88;;;4.32;;
76107;SDS011;64834;52.516;10.528;2023-06-10T01:43:38;8.85;;;4.13;;
76107;SDS011;64834;52.516;10.528;2023-06-10T01:46:04;9.88;;;4.80;;
76107;SDS011;64834;52.516;10.528;2023-06-10T01:48:29;9.85;;;4.82;;
76107;SDS011;64834;52.516;10.528;2023-06-10T01:50:55;10.40;;;4.93;;
76107;SDS011;64834;52.516;10.528;2023-06-10T01:53:23;9.88;;;5.32;;
76107;SDS011;64834;52.516;10.528;2023-06-10T01:55:48;9.60;;;4.50;;
76107;SDS011;64834;52.516;10.528;2023-06-10T01:58:14;11.73;;;4.72;;
76107;SDS011;64834;52.516;10.528;2023-06-10T02:00:39;9.20;;;4.38;;
76107;SDS011;64834;52.516;10.528;2023-06-10T02:03:05;7.68;;;4.65;;
76107;SDS011;64834;52.516;10.528;2023-06-10T02:05:30;9.15;;;4.55;;
76107;SDS011;64834;52.516;10.528;2023-06-10T02:07:55;9.43;;;4.78;;
76107;SDS011;64834;52.516;10.528;2023-06-10T02:10:21;9.88;;;4.55;;
76107;SDS011;64834;52.516;10.528;2023-06-10T02:12:46;7.38;;;4.43;;
76107;SDS011;64834;52.516;10.528;2023-06-10T02:15:12;11.07;;;4.85;;
76107;SDS011;64834;52.516;10.528;2023-06-10T02:17:37;7.57;;;4.53;;
76107;SDS011;64834;52.516;10.528;2023-06-10T02:20:03;10.02;;;4.75;;
76107;SDS011;64834;52.516;10.528;2023-06-10T02:22:31;8.65;;;4.80;;
76107;SDS011;64834;52.516;10.528;2023-06-10T02:24:56;11.05;;;5.00;;
76107;SDS011;64834;52.516;10.528;2023-06-10T02:27:22;9.07;;;4.45;;
76107;SDS011;64834;52.516;10.528;2023-06-10T02:29:47;10.05;;;5.00;;
76107;SDS011;64834;52.516;10.528;2023-06-10T02:32:12;11.70;;;4.75;;
76107;SDS011;64834;52.516;10.528;2023-06-10T02:34:38;7.45;;;5.13;;
76107;SDS011;64834;52.516;10.528;2023-06-10T02:37:03;8.57;;;4.97;;
76107;SDS011;64834;52.516;10.528;2023-06-10T02:39:29;10.02;;;4.93;;
76107;SDS011;64834;52.516;10.528;2023-06-10T02:41:54;9.32;;;5.25;;
76107;SDS011;64834;52.516;10.528;2023-06-10T02:44:19;9.35;;;4.70;;
76107;SDS011;64834;52.516;10.528;2023-06-10T02:46:45;7.90;;;4.40;;
76107;SDS011;64834;52.516;10.528;2023-06-10T02:49:11;13.70;;;4.70;;
76107;SDS011;64834;52.516;10.528;2023-06-10T02:51:37;9.70;;;5.40;;
76107;SDS011;64834;52.516;10.528;2023-06-10T02:54:02;7.10;;;4.68;;
76107;SDS011;64834;52.516;10.528;2023-06-10T02:56:27;10.85;;;4.78;;
76107;SDS011;64834;52.516;10.528;2023-06-10T02:58:53;8.18;;;4.50;;
76107;SDS011;64834;52.516;10.528;2023-06-10T03:01:18;8.63;;;4.70;;
76107;SDS011;64834;52.516;10.528;2023-06-10T03:03:44;10.48;;;5.47;;
76107;SDS011;64834;52.516;10.528;2023-06-10T03:06:11;8.82;;;5.22;;
76107;SDS011;64834;52.516;10.528;2023-06-10T03:08:37;10.45;;;5.30;;
76107;SDS011;64834;52.516;10.528;2023-06-10T03:11:03;8.63;;;4.68;;
76107;SDS011;64834;52.516;10.528;2023-06-10T03:13:28;8.18;;;5.13;;
76107;SDS011;64834;52.516;10.528;2023-06-10T03:15:54;9.00;;;5.03;;
76107;SDS011;64834;52.516;10.528;2023-06-10T03:18:19;8.40;;;4.75;;
76107;SDS011;64834;52.516;10.528;2023-06-10T03:20:45;10.13;;;4.88;;
76107;SDS011;64834;52.516;10.528;2023-06-10T03:23:10;9.82;;;4.93;;
76107;SDS011;64834;52.516;10.528;2023-06-10T03:25:36;9.02;;;4.97;;
76107;SDS011;64834;52.516;10.528;2023-06-10T03:28:01;9.88;;;5.20;;
76107;SDS011;64834;52.516;10.528;2023-06-10T03:30:29;10.88;;;5.03;;
76107;SDS011;64834;52.516;10.528;2023-06-10T03:32:55;9.65;;;5.57;;
76107;SDS011;64834;52.516;10.528;2023-06-10T03:35:20;10.48;;;5.05;;
76107;SDS011;64834;52.516;10.528;2023-06-10T03:37:45;9.70;;;5.28;;
76107;SDS011;64834;52.516;10.528;2023-06-10T03:40:11;8.80;;;5.03;;
76107;SDS011;64834;52.516;10.528;2023-06-10T03:42:36;10.25;;;5.38;;
76107;SDS011;64834;52.516;10.528;2023-06-10T03:45:02;11.25;;;5.55;;
76107;SDS011;64834;52.516;10.528;2023-06-10T03:47:33;9.32;;;6.25;;
76107;SDS011;64834;52.516;10.528;2023-06-10T03:50:00;10.13;;;5.28;;
76107;SDS011;64834;52.516;10.528;2023-06-10T03:52:25;11.27;;;5.70;;
76107;SDS011;64834;52.516;10.528;2023-06-10T03:54:50;9.13;;;5.22;;
76107;SDS011;64834;52.516;10.528;2023-06-10T03:57:16;9.60;;;5.07;;
76107;SDS011;64834;52.516;10.528;2023-06-10T03:59:41;11.32;;;5.18;;
76107;SDS011;64834;52.516;10.528;2023-06-10T04:02:06;8.65;;;4.95;;
76107;SDS011;64834;52.516;10.528;2023-06-10T04:04:33;10.30;;;5.55;;
76107;SDS011;64834;52.516;10.528;2023-06-10T04:06:59;10.05;;;5.13;;
76107;SDS011;64834;52.516;10.528;2023-06-10T04:09:24;10.02;;;5.07;;
76107;SDS011;64834;52.516;10.528;2023-06-10T04:11:49;8.05;;;4.97;;
76107;SDS011;64834;52.516;10.528;2023-06-10T04:14:15;10.18;;;4.75;;
76107;SDS011;64834;52.516;10.528;2023-06-10T04:16:40;10.50;;;4.68;;
76107;SDS011;64834;52.516;10.528;2023-06-10T04:19:06;8.57;;;4.72;;
76107;SDS011;64834;52.516;10.528;2023-06-10T04:21:32;9.07;;;4.80;;
76107;SDS011;64834;52.516;10.528;2023-06-10T04:23:57;8.30;;;4.88;;
76107;SDS011;64834;52.516;10.528;2023-06-10T04:26:23;9.98;;;4.57;;
76107;SDS011;64834;52.516;10.528;2023-06-10T04:28:48;9.63;;;4.70;;
76107;SDS011;64834;52.516;10.528;2023-06-10T04:31:13;9.20;;;4.20;;
76107;SDS011;64834;52.516;10.528;2023-06-10T04:33:39;9.48;;;4.85;;
76107;SDS011;64834;52.516;10.528;2023-06-10T04:36:04;7.53;;;4.55;;
76107;SDS011;64834;52.516;10.528;2023-06-10T04:38:31;10.02;;;4.45;;
76107;SDS011;64834;52.516;10.528;2023-06-10T04:40:57;10.02;;;4.22;;
76107;SDS011;64834;52.516;10.528;2023-06-10T04:43:22;9.43;;;4.05;;
76107;SDS011;64834;52.516;10.528;2023-06-10T04:45:47;9.13;;;4.45;;
76107;SDS011;64834;52.516;10.528;2023-06-10T04:48:13;9.25;;;4.55;;
76107;SDS011;64834;52.516;10.528;2023-06-10T04:50:39;9.02;;;4.57;;
76107;SDS011;64834;52.516;10.528;2023-06-10T04:53:05;8.77;;;4.22;;
76107;SDS011;64834;52.516;10.528;2023-06-10T04:55:31;9.63;;;4.75;;
76107;SDS011;64834;52.516;10.528;2023-06-10T04:57:56;10.35;;;4.82;;
76107;SDS011;64834;52.516;10.528;2023-06-10T05:00:22;8.98;;;4.75;;
76107;SDS011;64834;52.516;10.528;2023-06-10T05:02:48;10.23;;;4.93;;
76107;SDS011;64834;52.516;10.528;2023-06-10T05:05:15;8.98;;;4.10;;
76107;SDS011;64834;52.516;10.528;2023-06-10T05:07:41;12.52;;;5.00;;
76107;SDS011;64834;52.516;10.528;2023-06-10T05:10:06;9.50;;;4.60;;
76107;SDS011;64834;52.516;10.528;2023-06-10T05:12:32;7.97;;;4.30;;
76107;SDS011;64834;52.516;10.528;2023-06-10T05:14:57;13.35;;;5.03;;
76107;SDS011;64834;52.516;10.528;2023-06-10T05:17:23;9.45;;;4.47;;
76107;SDS011;64834;52.516;10.528;2023-06-10T05:19:48;11.73;;;4.88;;
76107;SDS011;64834;52.516;10.528;2023-06-10T05:22:13;9.65;;;4.50;;
76107;SDS011;64834;52.516;10.528;2023-06-10T05:24:41;7.10;;;4.22;;
76107;SDS011;64834;52.516;10.528;2023-06-10T05:27:06;11.35;;;4.45;;
76107;SDS011;64834;52.516;10.528;2023-06-10T05:29:31;9.95;;;4.53;;
76107;SDS011;64834;52.516;10.528;2023-06-10T05:31:57;10.43;;;5.28;;
76107;SDS011;64834;52.516;10.528;2023-06-10T05:34:25;8.55;;;4.88;;
76107;SDS011;64834;52.516;10.528;2023-06-10T05:36:50;8.25;;;4.20;;
76107;SDS011;64834;52.516;10.528;2023-06-10T05:39:16;12.13;;;5.20;;
76107;SDS011;64834;52.516;10.528;2023-06-10T05:41:41;11.10;;;5.03;;
76107;SDS011;64834;52.516;10.528;2023-06-10T05:44:06;8.40;;;4.78;;
76107;SDS011;64834;52.516;10.528;2023-06-10T05:46:32;11.40;;;4.88;;
76107;SDS011;64834;52.516;10.528;2023-06-10T05:48:57;13.13;;;4.70;;
76107;SDS011;64834;52.516;10.528;2023-06-10T05:51:22;9.90;;;4.82;;
76107;SDS011;64834;52.516;10.528;2023-06-10T05:53:47;8.30;;;4.38;;
76107;SDS011;64834;52.516;10.528;2023-06-10T05:56:13;8.57;;;4.03;;
76107;SDS011;64834;52.516;10.528;2023-06-10T05:58:39;8.95;;;4.55;;
76107;SDS011;64834;52.516;10.528;2023-06-10T06:01:05;9.30;;;4.65;;
76107;SDS011;64834;52.516;10.528;2023-06-10T06:03:30;9.77;;;4.10;;
76107;SDS011;64834;52.516;10.528;2023-06-10T06:05:55;9.10;;;3.97;;
76107;SDS011;64834;52.516;10.528;2023-06-10T06:08:21;11.23;;;4.70;;
76107;SDS011;64834;52.516;10.528;2023-06-10T06:10:46;8.23;;;4.25;;
76107;SDS011;64834;52.516;10.528;2023-06-10T06:13:12;7.22;;;4.10;;
76107;SDS011;64834;52.516;10.528;2023-06-10T06:15:38;9.10;;;4.28;;
76107;SDS011;64834;52.516;10.528;2023-06-10T06:18:03;9.25;;;3.97;;
76107;SDS011;64834;52.516;10.528;2023-06-10T06:20:29;10.98;;;4.53;;
76107;SDS011;64834;52.516;10.528;2023-06-10T06:22:54;10.23;;;4.88;;
76107;SDS011;64834;52.516;10.528;2023-06-10T06:25:20;8.05;;;4.40;;
76107;SDS011;64834;52.516;10.528;2023-06-10T06:27:45;8.52;;;3.83;;
76107;SDS011;64834;52.516;10.528;2023-06-10T06:30:10;7.72;;;4.30;;
76107;SDS011;64834;52.516;10.528;2023-06-10T06:32:36;8.73;;;3.72;;
76107;SDS011;64834;52.516;10.528;2023-06-10T06:35:01;5.72;;;3.75;;
76107;SDS011;64834;52.516;10.528;2023-06-10T06:37:26;8.55;;;3.80;;
76107;SDS011;64834;52.516;10.528;2023-06-10T06:39:52;9.88;;;3.95;;
76107;SDS011;64834;52.516;10.528;2023-06-10T06:42:18;8.80;;;4.88;;
76107;SDS011;64834;52.516;10.528;2023-06-10T06:44:45;9.75;;;3.95;;
76107;SDS011;64834;52.516;10.528;2023-06-10T06:47:11;6.07;;;3.58;;
76107;SDS011;64834;52.516;10.528;2023-06-10T06:49:36;9.45;;;3.83;;
76107;SDS011;64834;52.516;10.528;2023-06-10T06:52:02;9.65;;;4.05;;
76107;SDS011;64834;52.516;10.528;2023-06-10T06:54:27;9.02;;;4.07;;
76107;SDS011;64834;52.516;10.528;2023-06-10T06:56:53;9.07;;;4.05;;
76107;SDS011;64834;52.516;10.528;2023-06-10T06:59:18;9.43;;;4.15;;
76107;SDS011;64834;52.516;10.528;2023-06-10T07:01:44;6.78;;;3.60;;
76107;SDS011;64834;52.516;10.528;2023-06-10T07:04:10;9.23;;;4.28;;
76107;SDS011;64834;52.516;10.528;2023-06-10T07:06:35;7.45;;;3.80;;
76107;SDS011;64834;52.516;10.528;2023-06-10T07:09:01;9.75;;;4.30;;
76107;SDS011;64834;52.516;10.528;2023-06-10T07:11:26;8.13;;;3.55;;
76107;SDS011;64834;52.516;10.528;2023-06-10T07:13:51;5.93;;;3.60;;
76107;SDS011;64834;52.516;10.528;2023-06-10T07:16:17;7.00;;;3.47;;
76107;SDS011;64834;52.516;10.528;2023-06-10T07:18:42;7.78;;;4.00;;
76107;SDS011;64834;52.516;10.528;2023-06-10T07:21:07;9.20;;;3.45;;
76107;SDS011;64834;52.516;10.528;2023-06-10T07:23:33;11.18;;;3.90;;
76107;SDS011;64834;52.516;10.528;2023-06-10T07:25:58;9.52;;;3.55;;
76107;SDS011;64834;52.516;10.528;2023-06-10T07:28:23;10.55;;;4.03;;
76107;SDS011;64834;52.516;10.528;2023-06-10T07:30:49;7.13;;;3.65;;
76107;SDS011;64834;52.516;10.528;2023-06-10T07:33:14;7.10;;;3.65;;
76107;SDS011;64834;52.516;10.528;2023-06-10T07:35:40;6.65;;;3.70;;
76107;SDS011;64834;52.516;10.528;2023-06-10T07:38:07;8.18;;;3.63;;
76107;SDS011;64834;52.516;10.528;2023-06-10T07:40:33;7.82;;;3.85;;
76107;SDS011;64834;52.516;10.528;2023-06-10T07:42:58;7.63;;;3.75;;
76107;SDS011;64834;52.516;10.528;2023-06-10T07:45:23;8.15;;;3.70;;
76107;SDS011;64834;52.516;10.528;2023-06-10T07:47:49;8.30;;;4.05;;
76107;SDS011;64834;52.516;10.528;2023-06-10T07:50:14;7.57;;;4.15;;
76107;SDS011;64834;52.516;10.528;2023-06-10T07:52:39;7.20;;;3.65;;
76107;SDS011;64834;52.516;10.528;2023-06-10T07:55:05;5.97;;;3.58;;
76107;SDS011;64834;52.516;10.528;2023-06-10T07:57:30;7.90;;;4.07;;
76107;SDS011;64834;52.516;10.528;2023-06-10T07:59:59;6.90;;;3.05;;
76107;SDS011;64834;52.516;10.528;2023-06-10T08:02:25;6.65;;;3.50;;
76107;SDS011;64834;52.516;10.528;2023-06-10T08:04:50;8.70;;;3.65;;
76107;SDS011;64834;52.516;10.528;2023-06-10T08:07:15;7.45;;;3.42;;
76107;SDS011;64834;52.516;10.528;2023-06-10T08:12:08;6.33;;;3.73;;
76107;SDS011;64834;52.516;10.528;2023-06-10T08:14:33;7.93;;;3.17;;
76107;SDS011;64834;52.516;10.528;2023-06-10T08:16:59;7.70;;;3.80;;
76107;SDS011;64834;52.516;10.528;2023-06-10T08:19:24;8.65;;;3.85;;
76107;SDS011;64834;52.516;10.528;2023-06-10T08:21:49;7.35;;;3.45;;
76107;SDS011;64834;52.516;10.528;2023-06-10T08:24:15;5.68;;;3.50;;
76107;SDS011;64834;52.516;10.528;2023-06-10T08:26:42;7.20;;;3.78;;
76107;SDS011;64834;52.516;10.528;2023-06-10T08:29:08;7.97;;;3.65;;
76107;SDS011;64834;52.516;10.528;2023-06-10T08:31:33;7.85;;;3.20;;
76107;SDS011;64834;52.516;10.528;2023-06-10T08:33:58;8.10;;;3.78;;
76107;SDS011;64834;52.516;10.528;2023-06-10T08:36:24;7.45;;;3.47;;
76107;SDS011;64834;52.516;10.528;2023-06-10T08:38:49;6.72;;;3.13;;
76107;SDS011;64834;52.516;10.528;2023-06-10T08:41:15;6.45;;;3.50;;
76107;SDS011;64834;52.516;10.528;2023-06-10T08:43:48;7.80;;;3.20;;
76107;SDS011;64834;52.516;10.528;2023-06-10T08:46:21;7.28;;;3.35;;
76107;SDS011;64834;52.516;10.528;2023-06-10T08:48:46;7.75;;;3.13;;
76107;SDS011;64834;52.516;10.528;2023-06-10T08:51:18;7.65;;;3.90;;
76107;SDS011;64834;52.516;10.528;2023-06-10T08:53:48;5.93;;;3.47;;
76107;SDS011;64834;52.516;10.528;2023-06-10T08:56:20;8.05;;;3.65;;
76107;SDS011;64834;52.516;10.528;2023-06-10T08:58:50;8.93;;;4.07;;
76107;SDS011;64834;52.516;10.528;2023-06-10T09:01:16;6.93;;;3.50;;
76107;SDS011;64834;52.516;10.528;2023-06-10T09:03:43;9.52;;;3.90;;
76107;SDS011;64834;52.516;10.528;2023-06-10T09:06:08;6.50;;;3.90;;
76107;SDS011;64834;52.516;10.528;2023-06-10T09:08:34;6.60;;;3.60;;
76107;SDS011;64834;52.516;10.528;2023-06-10T09:11:00;6.95;;;3.60;;
76107;SDS011;64834;52.516;10.528;2023-06-10T09:13:25;7.35;;;3.65;;
76107;SDS011;64834;52.516;10.528;2023-06-10T09:15:51;7.00;;;3.85;;
76107;SDS011;64834;52.516;10.528;2023-06-10T09:18:16;8.27;;;3.60;;
76107;SDS011;64834;52.516;10.528;2023-06-10T09:20:42;6.97;;;3.90;;
76107;SDS011;64834;52.516;10.528;2023-06-10T09:23:08;8.32;;;4.63;;
76107;SDS011;64834;52.516;10.528;2023-06-10T09:25:37;7.38;;;4.00;;
76107;SDS011;64834;52.516;10.528;2023-06-10T09:28:03;8.00;;;4.03;;
76107;SDS011;64834;52.516;10.528;2023-06-10T09:30:30;7.63;;;4.53;;
76107;SDS011;64834;52.516;10.528;2023-06-10T09:32:57;6.10;;;3.58;;
76107;SDS011;64834;52.516;10.528;2023-06-10T09:35:24;6.85;;;4.05;;
76107;SDS011;64834;52.516;10.528;2023-06-10T09:37:51;8.05;;;3.45;;
76107;SDS011;64834;52.516;10.528;2023-06-10T09:40:17;7.47;;;4.18;;
76107;SDS011;64834;52.516;10.528;2023-06-10T09:42:43;9.07;;;4.40;;
76107;SDS011;64834;52.516;10.528;2023-06-10T09:45:08;8.15;;;4.45;;
76107;SDS011;64834;52.516;10.528;2023-06-10T09:47:33;7.22;;;4.45;;
76107;SDS011;64834;52.516;10.528;2023-06-10T09:49:59;8.63;;;4.72;;
76107;SDS011;64834;52.516;10.528;2023-06-10T09:52:25;8.80;;;4.50;;
76107;SDS011;64834;52.516;10.528;2023-06-10T09:54:52;7.07;;;4.85;;
76107;SDS011;64834;52.516;10.528;2023-06-10T09:57:21;7.53;;;4.72;;
76107;SDS011;64834;52.516;10.528;2023-06-10T09:59:47;8.95;;;4.90;;
76107;SDS011;64834;52.516;10.528;2023-06-10T10:02:16;6.72;;;4.55;;
76107;SDS011;64834;52.516;10.528;2023-06-10T10:04:42;8.15;;;4.70;;
76107;SDS011;64834;52.516;10.528;2023-06-10T10:07:09;8.63;;;4.93;;
76107;SDS011;64834;52.516;10.528;2023-06-10T10:09:38;6.45;;;5.10;;
76107;SDS011;64834;52.516;10.528;2023-06-10T10:12:11;6.72;;;4.65;;
76107;SDS011;64834;52.516;10.528;2023-06-10T10:14:38;7.53;;;5.00;;
76107;SDS011;64834;52.516;10.528;2023-06-10T10:17:14;7.60;;;5.25;;
76107;SDS011;64834;52.516;10.528;2023-06-10T10:19:43;8.27;;;5.25;;
76107;SDS011;64834;52.516;10.528;2023-06-10T10:22:18;10.18;;;5.30;;
76107;SDS011;64834;52.516;10.528;2023-06-10T10:24:46;10.77;;;5.18;;
76107;SDS011;64834;52.516;10.528;2023-06-10T10:27:18;8.10;;;5.60;;
76107;SDS011;64834;52.516;10.528;2023-06-10T10:29:51;7.65;;;4.80;;
76107;SDS011;64834;52.516;10.528;2023-06-10T10:32:17;9.35;;;5.35;;
76107;SDS011;64834;52.516;10.528;2023-06-10T10:34:50;6.43;;;4.90;;
76107;SDS011;64834;52.516;10.528;2023-06-10T10:37:22;8.52;;;5.15;;
76107;SDS011;64834;52.516;10.528;2023-06-10T10:39:48;7.85;;;5.15;;
76107;SDS011;64834;52.516;10.528;2023-06-10T10:42:14;8.07;;;5.05;;
76107;SDS011;64834;52.516;10.528;2023-06-10T10:44:41;8.65;;;4.95;;
76107;SDS011;64834;52.516;10.528;2023-06-10T10:47:07;8.00;;;4.82;;
76107;SDS011;64834;52.516;10.528;2023-06-10T10:49:35;5.78;;;4.70;;
76107;SDS011;64834;52.516;10.528;2023-06-10T10:52:02;6.15;;;5.00;;
76107;SDS011;64834;52.516;10.528;2023-06-10T10:54:36;8.27;;;5.55;;
76107;SDS011;64834;52.516;10.528;2023-06-10T11:02:33;8.63;;;5.65;;
76107;SDS011;64834;52.516;10.528;2023-06-10T11:05:05;7.20;;;5.85;;
76107;SDS011;64834;52.516;10.528;2023-06-10T11:07:32;7.60;;;5.35;;
76107;SDS011;64834;52.516;10.528;2023-06-10T11:15:12;7.95;;;5.55;;
76107;SDS011;64834;52.516;10.528;2023-06-10T11:18:06;6.93;;;5.60;;
76107;SDS011;64834;52.516;10.528;2023-06-10T11:31:19;7.63;;;5.10;;
76107;SDS011;64834;52.516;10.528;2023-06-10T11:33:48;6.72;;;5.28;;
76107;SDS011;64834;52.516;10.528;2023-06-10T11:36:18;7.65;;;5.15;;
76107;SDS011;64834;52.516;10.528;2023-06-10T11:38:43;7.75;;;5.18;;
76107;SDS011;64834;52.516;10.528;2023-06-10T11:41:09;7.50;;;5.03;;
76107;SDS011;64834;52.516;10.528;2023-06-10T11:43:36;8.60;;;5.63;;
76107;SDS011;64834;52.516;10.528;2023-06-10T11:46:01;7.63;;;5.20;;
76107;SDS011;64834;52.516;10.528;2023-06-10T11:48:27;6.00;;;5.20;;
76107;SDS011;64834;52.516;10.528;2023-06-10T11:50:55;7.10;;;5.43;;
76107;SDS011;64834;52.516;10.528;2023-06-10T11:53:20;7.95;;;5.15;;
76107;SDS011;64834;52.516;10.528;2023-06-10T11:55:46;7.05;;;5.00;;
76107;SDS011;64834;52.516;10.528;2023-06-10T12:00:51;10.40;;;5.45;;
76107;SDS011;64834;52.516;10.528;2023-06-10T12:03:23;9.38;;;5.25;;
76107;SDS011;64834;52.516;10.528;2023-06-10T12:06:02;6.25;;;5.15;;
76107;SDS011;64834;52.516;10.528;2023-06-10T12:08:32;9.23;;;6.13;;
76107;SDS011;64834;52.516;10.528;2023-06-10T12:10:58;7.97;;;7.05;;
76107;SDS011;64834;52.516;10.528;2023-06-10T12:13:26;7.15;;;5.32;;
76107;SDS011;64834;52.516;10.528;2023-06-10T12:15:51;8.88;;;5.40;;
76107;SDS011;64834;52.516;10.528;2023-06-10T12:18:20;11.32;;;6.63;;
76107;SDS011;64834;52.516;10.528;2023-06-10T12:20:47;6.70;;;6.03;;
76107;SDS011;64834;52.516;10.528;2023-06-10T12:23:13;10.02;;;5.35;;
76107;SDS011;64834;52.516;10.528;2023-06-10T12:25:39;8.70;;;6.20;;
76107;SDS011;64834;52.516;10.528;2023-06-10T12:28:16;6.63;;;5.30;;
76107;SDS011;64834;52.516;10.528;2023-06-10T12:30:42;6.88;;;5.88;;
76107;SDS011;64834;52.516;10.528;2023-06-10T12:33:15;7.20;;;5.97;;
76107;SDS011;64834;52.516;10.528;2023-06-10T12:35:46;7.82;;;5.60;;
76107;SDS011;64834;52.516;10.528;2023-06-10T12:38:13;8.98;;;5.90;;
76107;SDS011;64834;52.516;10.528;2023-06-10T12:40:39;8.35;;;6.25;;
76107;SDS011;64834;52.516;10.528;2023-06-10T12:43:05;6.65;;;5.43;;
76107;SDS011;64834;52.516;10.528;2023-06-10T12:45:31;6.57;;;5.47;;
76107;SDS011;64834;52.516;10.528;2023-06-10T12:48:05;8.30;;;6.68;;
76107;SDS011;64834;52.516;10.528;2023-06-10T12:50:35;8.82;;;5.90;;
76107;SDS011;64834;52.516;10.528;2023-06-10T12:53:02;8.38;;;6.18;;
76107;SDS011;64834;52.516;10.528;2023-06-10T12:55:27;7.75;;;6.22;;
76107;SDS011;64834;52.516;10.528;2023-06-10T12:57:53;7.93;;;5.90;;
76107;SDS011;64834;52.516;10.528;2023-06-10T13:00:20;8.50;;;6.30;;
76107;SDS011;64834;52.516;10.528;2023-06-10T13:02:45;8.05;;;5.63;;
76107;SDS011;64834;52.516;10.528;2023-06-10T13:05:11;7.68;;;6.90;;
76107;SDS011;64834;52.516;10.528;2023-06-10T13:07:36;7.13;;;6.03;;
76107;SDS011;64834;52.516;10.528;2023-06-10T13:10:01;8.07;;;5.93;;
76107;SDS011;64834;52.516;10.528;2023-06-10T13:12:27;9.15;;;6.00;;
76107;SDS011;64834;52.516;10.528;2023-06-10T13:14:55;7.97;;;5.80;;
76107;SDS011;64834;52.516;10.528;2023-06-10T13:17:21;7.68;;;6.65;;
76107;SDS011;64834;52.516;10.528;2023-06-10T13:19:46;6.70;;;5.55;;
76107;SDS011;64834;52.516;10.528;2023-06-10T13:22:12;7.60;;;6.05;;
76107;SDS011;64834;52.516;10.528;2023-06-10T13:24:41;7.95;;;5.85;;
76107;SDS011;64834;52.516;10.528;2023-06-10T13:27:08;7.65;;;5.85;;
76107;SDS011;64834;52.516;10.528;2023-06-10T13:29:34;7.00;;;5.32;;
76107;SDS011;64834;52.516;10.528;2023-06-10T13:31:59;8.75;;;6.53;;
76107;SDS011;64834;52.516;10.528;2023-06-10T13:34:24;8.43;;;5.38;;
76107;SDS011;64834;52.516;10.528;2023-06-10T13:36:50;7.85;;;5.57;;
76107;SDS011;64834;52.516;10.528;2023-06-10T13:39:15;6.82;;;5.68;;
76107;SDS011;64834;52.516;10.528;2023-06-10T13:41:41;7.45;;;5.90;;
76107;SDS011;64834;52.516;10.528;2023-06-10T13:44:06;7.53;;;5.85;;
76107;SDS011;64834;52.516;10.528;2023-06-10T13:46:32;6.95;;;5.68;;
76107;SDS011;64834;52.516;10.528;2023-06-10T13:48:57;6.45;;;5.60;;
76107;SDS011;64834;52.516;10.528;2023-06-10T13:51:22;7.85;;;5.35;;
76107;SDS011;64834;52.516;10.528;2023-06-10T13:53:48;8.32;;;6.15;;
76107;SDS011;64834;52.516;10.528;2023-06-10T13:56:13;6.10;;;5.38;;
76107;SDS011;64834;52.516;10.528;2023-06-10T13:58:39;6.65;;;5.38;;
76107;SDS011;64834;52.516;10.528;2023-06-10T14:03:31;7.95;;;5.53;;
76107;SDS011;64834;52.516;10.528;2023-06-10T14:05:56;8.90;;;6.43;;
76107;SDS011;64834;52.516;10.528;2023-06-10T14:08:22;7.53;;;5.40;;
76107;SDS011;64834;52.516;10.528;2023-06-10T14:10:47;6.90;;;6.15;;
76107;SDS011;64834;52.516;10.528;2023-06-10T14:13:13;7.93;;;5.07;;
76107;SDS011;64834;52.516;10.528;2023-06-10T14:15:38;7.32;;;5.70;;
76107;SDS011;64834;52.516;10.528;2023-06-10T14:18:04;7.72;;;5.50;;
76107;SDS011;64834;52.516;10.528;2023-06-10T14:20:29;9.93;;;5.20;;
76107;SDS011;64834;52.516;10.528;2023-06-10T14:22:56;8.63;;;5.57;;
76107;SDS011;64834;52.516;10.528;2023-06-10T14:25:22;5.63;;;4.70;;
76107;SDS011;64834;52.516;10.528;2023-06-10T14:27:47;7.60;;;5.30;;
76107;SDS011;64834;52.516;10.528;2023-06-10T14:30:13;7.30;;;5.35;;
76107;SDS011;64834;52.516;10.528;2023-06-10T14:32:38;7.55;;;5.25;;
76107;SDS011;64834;52.516;10.528;2023-06-10T14:35:04;5.90;;;5.30;;
76107;SDS011;64834;52.516;10.528;2023-06-10T14:37:29;7.07;;;5.43;;
76107;SDS011;64834;52.516;10.528;2023-06-10T14:39:55;6.43;;;5.60;;
76107;SDS011;64834;52.516;10.528;2023-06-10T14:42:20;6.30;;;5.10;;
76107;SDS011;64834;52.516;10.528;2023-06-10T14:44:45;8.85;;;5.82;;
76107;SDS011;64834;52.516;10.528;2023-06-10T14:47:11;9.70;;;5.53;;
76107;SDS011;64834;52.516;10.528;2023-06-10T14:49:36;7.18;;;5.18;;
76107;SDS011;64834;52.516;10.528;2023-06-10T14:52:01;6.03;;;5.40;;
76107;SDS011;64834;52.516;10.528;2023-06-10T14:54:27;5.90;;;5.00;;
76107;SDS011;64834;52.516;10.528;2023-06-10T14:56:52;6.30;;;5.57;;
76107;SDS011;64834;52.516;10.528;2023-06-10T14:59:17;7.63;;;5.22;;
76107;SDS011;64834;52.516;10.528;2023-06-10T15:01:43;8.82;;;5.35;;
76107;SDS011;64834;52.516;10.528;2023-06-10T15:04:08;6.93;;;5.40;;
76107;SDS011;64834;52.516;10.528;2023-06-10T15:06:33;7.50;;;5.50;;
76107;SDS011;64834;52.516;10.528;2023-06-10T15:08:59;7.30;;;5.47;;